createdAt,value
2017-12-15T00:01:31.212Z,65.40
2017-12-15T00:03:57.961Z,50.13
2017-12-15T00:06:30.909Z,51.87
2017-12-15T00:08:57.665Z,48.53
2017-12-15T00:11:24.387Z,46.50
2017-12-15T00:14:04.823Z,45.93
2017-12-15T00:16:32.523Z,42.30
2017-12-15T00:19:06.078Z,42.60
2017-12-15T00:24:18.163Z,40.33
2017-12-15T00:26:44.930Z,37.90
2017-12-15T00:29:20.363Z,34.37
2017-12-15T00:31:47.085Z,42.70
2017-12-15T00:34:18.962Z,34.83
2017-12-15T00:36:47.249Z,34.20
2017-12-15T00:39:13.981Z,35.80
2017-12-15T00:41:53.309Z,33.77
2017-12-15T00:44:22.014Z,36.97
2017-12-15T00:46:48.772Z,35.23
2017-12-15T00:49:15.542Z,28.63
2017-12-15T00:51:55.832Z,32.87
2017-12-15T00:54:32.455Z,36.93
2017-12-15T00:57:00.980Z,39.00
2017-12-15T00:59:29.604Z,44.97
2017-12-15T01:02:12.787Z,36.63
2017-12-15T01:04:53.285Z,36.70
2017-12-15T01:07:30.309Z,36.67
2017-12-15T01:09:57.036Z,43.80
2017-12-15T01:12:23.764Z,43.13
2017-12-15T01:15:04.522Z,42.27
2017-12-15T01:17:34.772Z,35.93
2017-12-15T01:20:08.920Z,33.40
2017-12-15T01:22:38.722Z,28.37
2017-12-15T01:25:05.460Z,27.80
2017-12-15T01:27:36.238Z,28.07
2017-12-15T01:30:14.420Z,26.93
2017-12-15T01:32:42.098Z,28.77
2017-12-15T01:35:08.825Z,41.43
2017-12-15T01:37:35.575Z,49.53
2017-12-15T01:40:02.356Z,103.73
2017-12-15T01:42:29.714Z,45.60
2017-12-15T01:44:57.456Z,37.17
2017-12-15T01:47:24.250Z,27.57
2017-12-15T01:49:58.914Z,28.07
2017-12-15T01:52:25.638Z,24.37
2017-12-15T01:54:56.206Z,26.73
2017-12-15T01:57:22.902Z,29.43
2017-12-15T01:59:49.650Z,26.53
2017-12-15T02:02:16.440Z,28.03
2017-12-15T02:04:43.160Z,27.17
2017-12-15T02:07:11.910Z,28.90
2017-12-15T02:09:40.562Z,26.90
2017-12-15T02:12:07.308Z,26.90
2017-12-15T02:14:34.075Z,28.23
2017-12-15T02:17:06.898Z,27.17
2017-12-15T02:19:39.255Z,25.77
2017-12-15T02:22:05.973Z,27.00
2017-12-15T02:24:32.698Z,28.93
2017-12-15T02:27:11.540Z,29.10
2017-12-15T02:29:39.478Z,28.67
2017-12-15T02:32:08.194Z,30.13
2017-12-15T02:34:34.981Z,25.70
2017-12-15T02:37:02.750Z,29.70
2017-12-15T02:39:29.453Z,26.90
2017-12-15T02:41:56.228Z,22.87
2017-12-15T02:44:27.023Z,21.30
2017-12-15T02:46:54.696Z,21.10
2017-12-15T02:49:21.498Z,22.73
2017-12-15T02:51:49.214Z,21.10
2017-12-15T02:54:15.961Z,21.67
2017-12-15T02:56:42.742Z,19.77
2017-12-15T02:59:13.224Z,21.67
2017-12-15T03:01:39.922Z,21.47
2017-12-15T03:04:06.671Z,22.10
2017-12-15T03:06:33.359Z,21.27
2017-12-15T03:09:06.176Z,18.80
2017-12-15T03:11:33.807Z,19.13
2017-12-15T03:14:10.584Z,17.90
2017-12-15T03:16:43.156Z,15.37
2017-12-15T03:19:19.554Z,15.03
2017-12-15T03:21:46.292Z,14.57
2017-12-15T03:24:12.964Z,15.50
2017-12-15T03:26:47.502Z,15.27
2017-12-15T03:29:19.420Z,15.20
2017-12-15T03:31:47.111Z,17.77
2017-12-15T03:34:15.778Z,15.93
2017-12-15T03:36:42.514Z,16.83
2017-12-15T03:39:18.518Z,15.80
2017-12-15T03:41:45.266Z,13.57
2017-12-15T03:44:16.188Z,12.83
2017-12-15T03:46:42.961Z,10.23
2017-12-15T03:49:09.698Z,11.10
2017-12-15T03:51:37.460Z,10.87
2017-12-15T03:54:04.195Z,9.67
2017-12-15T03:56:30.914Z,10.17
2017-12-15T03:59:06.962Z,10.17
2017-12-15T04:01:37.012Z,10.33
2017-12-15T04:04:03.778Z,10.60
2017-12-15T04:06:32.470Z,9.40
2017-12-15T04:08:59.184Z,9.60
2017-12-15T04:11:25.877Z,10.47
2017-12-15T04:13:53.624Z,10.50
2017-12-15T04:16:20.328Z,10.47
2017-12-15T04:19:02.588Z,10.03
2017-12-15T04:21:30.298Z,8.83
2017-12-15T04:23:56.999Z,7.80
2017-12-15T04:26:24.750Z,6.67
2017-12-15T04:28:51.490Z,8.53
2017-12-15T04:31:18.200Z,7.33
2017-12-15T04:33:45.922Z,7.53
2017-12-15T04:36:12.616Z,9.83
2017-12-15T04:38:39.346Z,11.40
2017-12-15T04:41:09.543Z,13.13
2017-12-15T04:43:36.248Z,14.90
2017-12-15T04:46:03.042Z,15.20
2017-12-15T04:48:31.808Z,12.47
2017-12-15T04:50:58.518Z,10.77
2017-12-15T04:53:25.196Z,9.53
2017-12-15T04:55:55.419Z,8.97
2017-12-15T04:58:22.158Z,8.67
2017-12-15T05:00:57.199Z,11.97
2017-12-15T05:03:29.828Z,10.83
2017-12-15T05:05:58.552Z,8.13
2017-12-15T05:08:25.279Z,9.10
2017-12-15T05:10:56.931Z,9.33
2017-12-15T05:13:37.978Z,7.03
2017-12-15T05:16:10.906Z,4.80
2017-12-15T05:18:41.558Z,3.47
2017-12-15T05:21:09.040Z,3.20
2017-12-15T05:23:35.759Z,4.20
2017-12-15T05:26:02.494Z,4.20
2017-12-15T05:28:32.674Z,6.60
2017-12-15T05:31:10.114Z,14.20
2017-12-15T05:33:39.914Z,15.87
2017-12-15T05:36:14.286Z,15.30
2017-12-15T05:38:47.861Z,16.87
2017-12-15T05:41:14.607Z,15.23
2017-12-15T05:43:41.347Z,17.43
2017-12-15T05:46:09.049Z,19.77
2017-12-15T05:48:35.778Z,19.13
2017-12-15T05:51:02.724Z,21.80
2017-12-15T05:53:29.449Z,20.37
2017-12-15T05:55:56.167Z,26.20
2017-12-15T05:58:23.894Z,32.70
2017-12-15T06:00:53.694Z,26.23
2017-12-15T06:03:20.438Z,18.47
2017-12-15T06:05:50.923Z,13.03
2017-12-15T06:08:22.464Z,8.87
2017-12-15T06:10:51.113Z,9.80
2017-12-15T06:13:17.833Z,8.73
2017-12-15T06:15:46.547Z,9.30
2017-12-15T06:18:13.273Z,8.00
2017-12-15T06:20:46.263Z,7.93
2017-12-15T06:23:25.593Z,9.23
2017-12-15T06:25:55.927Z,10.13
2017-12-15T06:28:30.474Z,12.83
2017-12-15T06:30:57.153Z,13.50
2017-12-15T06:33:37.131Z,13.77
2017-12-15T06:36:04.830Z,16.97
2017-12-15T06:38:31.574Z,23.03
2017-12-15T06:40:58.337Z,19.67
2017-12-15T06:43:25.065Z,26.57
2017-12-15T06:45:51.759Z,25.57
2017-12-15T06:48:32.172Z,23.93
2017-12-15T06:53:50.994Z,27.53
2017-12-15T06:56:17.690Z,22.37
2017-12-15T06:58:52.229Z,20.43
2017-12-15T07:01:18.929Z,27.57
2017-12-15T07:03:46.657Z,34.30
2017-12-15T07:06:13.416Z,36.73
2017-12-15T07:08:40.144Z,31.67
2017-12-15T07:11:07.161Z,28.90
2017-12-15T07:13:39.278Z,23.10
2017-12-15T07:16:06.089Z,20.63
2017-12-15T07:18:32.785Z,17.60
2017-12-15T07:21:10.827Z,17.33
2017-12-15T07:23:40.556Z,11.93
2017-12-15T07:26:13.847Z,10.57
2017-12-15T07:28:42.534Z,9.73
2017-12-15T07:31:10.231Z,9.37
2017-12-15T07:33:40.662Z,9.10
2017-12-15T07:36:07.419Z,9.33
2017-12-15T07:38:34.125Z,9.03
2017-12-15T07:41:01.433Z,9.37
2017-12-15T07:43:33.935Z,9.77
2017-12-15T07:46:03.807Z,9.10
2017-12-15T07:48:30.531Z,10.30
2017-12-15T07:50:58.186Z,10.23
2017-12-15T07:53:31.823Z,10.13
2017-12-15T07:55:58.526Z,9.90
2017-12-15T07:58:29.492Z,9.97
2017-12-15T08:00:56.200Z,9.63
2017-12-15T08:03:26.455Z,9.87
2017-12-15T08:08:39.835Z,11.33
2017-12-15T08:11:06.575Z,12.43
2017-12-15T08:13:33.299Z,15.37
2017-12-15T08:16:13.530Z,15.17
2017-12-15T08:18:41.227Z,15.97
2017-12-15T08:21:19.769Z,17.63
2017-12-15T08:23:49.663Z,16.63
2017-12-15T08:26:18.355Z,18.63
2017-12-15T08:28:45.089Z,21.50
2017-12-15T08:31:18.624Z,25.07
2017-12-15T08:33:45.311Z,20.60
2017-12-15T08:36:15.486Z,20.80
2017-12-15T08:38:42.233Z,22.13
2017-12-15T08:41:09.013Z,20.40
2017-12-15T08:43:39.405Z,21.00
2017-12-15T08:46:06.147Z,20.93
2017-12-15T08:48:38.071Z,21.27
2017-12-15T08:51:06.899Z,23.40
2017-12-15T08:53:33.595Z,21.20
2017-12-15T08:56:01.312Z,21.60
2017-12-15T08:58:28.516Z,21.77
2017-12-15T09:00:59.731Z,23.93
2017-12-15T09:03:26.521Z,23.17
2017-12-15T09:05:54.227Z,27.60
2017-12-15T09:08:20.915Z,27.63
2017-12-15T09:10:47.702Z,27.27
2017-12-15T09:13:25.009Z,28.10
2017-12-15T09:16:06.856Z,26.20
2017-12-15T09:18:33.537Z,28.03
2017-12-15T09:21:02.393Z,32.97
2017-12-15T09:23:31.047Z,30.83
2017-12-15T09:25:57.783Z,27.40
2017-12-15T09:28:24.561Z,24.73
2017-12-15T09:30:51.277Z,24.83
2017-12-15T09:33:17.999Z,27.00
2017-12-15T09:35:49.283Z,28.37
2017-12-15T09:38:16.027Z,31.57
2017-12-15T09:40:51.028Z,30.57
2017-12-15T09:43:17.798Z,32.23
2017-12-15T09:45:58.031Z,36.13
2017-12-15T09:48:34.945Z,35.17
2017-12-15T09:51:01.709Z,38.27
2017-12-15T09:53:37.119Z,38.83
2017-12-15T09:56:03.818Z,38.20
2017-12-15T09:58:44.107Z,43.10
2017-12-15T10:01:25.683Z,40.10
2017-12-15T10:04:05.072Z,37.50
2017-12-15T10:06:32.712Z,37.80
2017-12-15T10:09:00.427Z,39.67
2017-12-15T10:11:27.957Z,43.33
2017-12-15T10:13:54.641Z,42.70
2017-12-15T10:16:27.696Z,41.67
2017-12-15T10:18:57.543Z,39.13
2017-12-15T10:21:24.253Z,41.10
2017-12-15T10:26:36.813Z,41.30
2017-12-15T10:29:03.542Z,38.53
2017-12-15T10:31:34.305Z,35.70
2017-12-15T10:34:02.960Z,34.53
2017-12-15T10:36:41.313Z,33.53
2017-12-15T10:39:13.446Z,34.47
2017-12-15T10:41:40.209Z,37.27
2017-12-15T10:44:07.251Z,40.27
2017-12-15T10:46:33.928Z,38.97
2017-12-15T10:49:09.041Z,38.73
2017-12-15T10:51:35.775Z,38.60
2017-12-15T10:54:02.481Z,40.03
2017-12-15T10:56:34.749Z,42.13
2017-12-15T10:59:05.947Z,43.13
2017-12-15T11:01:32.703Z,43.23
2017-12-15T11:03:59.483Z,43.90
2017-12-15T11:06:26.173Z,37.90
2017-12-15T11:08:53.531Z,36.83
2017-12-15T11:11:20.241Z,35.60
2017-12-15T11:13:52.845Z,37.33
2017-12-15T11:16:23.618Z,34.93
2017-12-15T11:18:50.355Z,41.93
2017-12-15T11:21:17.087Z,42.20
2017-12-15T11:23:51.309Z,45.73
2017-12-15T11:26:18.048Z,44.43
2017-12-15T11:28:44.741Z,44.37
2017-12-15T11:31:17.399Z,45.23
2017-12-15T11:33:44.116Z,44.03
2017-12-15T11:36:10.895Z,48.20
2017-12-15T11:38:38.619Z,48.67
2017-12-15T11:41:13.479Z,52.67
2017-12-15T11:43:40.243Z,50.90
2017-12-15T11:46:06.938Z,40.20
2017-12-15T11:48:34.230Z,30.73
2017-12-15T11:51:00.991Z,28.37
2017-12-15T11:53:33.067Z,24.03
2017-12-15T11:55:59.763Z,23.47
2017-12-15T11:58:26.465Z,23.10
2017-12-15T12:00:53.180Z,23.77
2017-12-15T12:03:24.957Z,25.60
2017-12-15T12:05:52.708Z,23.10
2017-12-15T12:08:19.473Z,20.67
2017-12-15T12:10:50.170Z,19.43
2017-12-15T12:13:16.896Z,20.07
2017-12-15T12:15:45.603Z,18.33
2017-12-15T12:18:15.747Z,19.00
2017-12-15T12:20:42.506Z,18.80
2017-12-15T12:23:09.203Z,14.50
2017-12-15T12:25:35.887Z,13.83
2017-12-15T12:28:03.633Z,12.03
2017-12-15T12:30:30.432Z,10.33
2017-12-15T12:33:05.228Z,12.40
2017-12-15T12:35:42.079Z,11.93
2017-12-15T12:38:08.792Z,11.47
2017-12-15T12:40:43.016Z,11.27
2017-12-15T12:43:09.833Z,10.63
2017-12-15T12:45:40.743Z,12.50
2017-12-15T12:48:07.494Z,11.40
2017-12-15T12:50:34.227Z,11.83
2017-12-15T12:53:01.938Z,11.30
2017-12-15T12:55:34.430Z,11.20
2017-12-15T12:58:06.036Z,11.20
2017-12-15T13:00:32.782Z,11.50
2017-12-15T13:02:59.486Z,11.53
2017-12-15T13:05:27.447Z,11.10
2017-12-15T13:08:01.435Z,10.10
2017-12-15T13:10:28.159Z,9.80
2017-12-15T13:12:54.889Z,10.33
2017-12-15T13:15:26.478Z,10.43
2017-12-15T13:17:57.752Z,10.90
2017-12-15T13:20:24.447Z,12.27
2017-12-15T13:22:52.118Z,14.80
2017-12-15T13:25:18.853Z,15.13
2017-12-15T13:27:45.540Z,14.03
2017-12-15T13:30:12.393Z,14.20
2017-12-15T13:32:41.053Z,13.63
2017-12-15T13:35:07.787Z,13.33
2017-12-15T13:37:34.575Z,10.93
2017-12-15T13:40:08.921Z,11.80
2017-12-15T13:42:36.645Z,13.20
2017-12-15T13:45:03.344Z,13.43
2017-12-15T13:47:39.988Z,13.87
2017-12-15T13:50:06.677Z,16.60
2017-12-15T13:52:33.387Z,16.40
2017-12-15T13:55:04.680Z,17.87
2017-12-15T13:57:31.421Z,16.30
2017-12-15T14:00:09.331Z,15.83
2017-12-15T14:02:36.070Z,16.00
2017-12-15T14:05:02.786Z,17.33
2017-12-15T14:07:37.541Z,15.37
2017-12-15T14:10:04.284Z,16.00
2017-12-15T14:12:31.027Z,13.80
2017-12-15T14:14:59.752Z,15.40
2017-12-15T14:17:26.447Z,15.80
2017-12-15T14:19:55.158Z,12.23
2017-12-15T14:22:21.882Z,16.07
2017-12-15T14:24:48.622Z,17.83
2017-12-15T14:27:21.424Z,17.20
2017-12-15T14:29:49.150Z,16.93
2017-12-15T14:32:15.848Z,16.43
2017-12-15T14:34:42.569Z,16.60
2017-12-15T14:37:09.270Z,17.67
2017-12-15T14:39:35.976Z,19.00
2017-12-15T14:42:02.672Z,16.43
2017-12-15T14:44:29.396Z,16.30
2017-12-15T14:46:56.104Z,17.10
2017-12-15T14:49:22.852Z,16.53
2017-12-15T14:51:49.563Z,18.13
2017-12-15T14:54:16.242Z,20.43
2017-12-15T14:56:43.343Z,24.47
2017-12-15T14:59:11.114Z,30.83
2017-12-15T15:01:37.860Z,38.20
2017-12-15T15:04:04.527Z,37.43
2017-12-15T15:06:31.243Z,29.23
2017-12-15T15:08:57.941Z,27.93
2017-12-15T15:11:24.634Z,28.53
2017-12-15T15:13:51.372Z,26.27
2017-12-15T15:16:18.052Z,26.17
2017-12-15T15:18:47.996Z,24.37
2017-12-15T15:21:14.716Z,22.10
2017-12-15T15:23:41.418Z,21.20
2017-12-15T15:26:08.156Z,23.73
2017-12-15T15:28:34.892Z,22.27
2017-12-15T15:31:01.586Z,23.20
2017-12-15T15:33:28.273Z,23.80
2017-12-15T15:35:54.982Z,23.93
2017-12-15T15:38:22.504Z,23.73
2017-12-15T15:40:49.243Z,25.03
2017-12-15T15:43:16.916Z,27.10
2017-12-15T15:45:43.864Z,26.63
2017-12-15T15:48:13.634Z,25.10
2017-12-15T15:50:40.362Z,23.80
2017-12-15T15:53:07.058Z,23.67
2017-12-15T15:55:33.756Z,21.40
2017-12-15T15:58:00.446Z,23.07
2017-12-15T16:00:27.132Z,24.13
2017-12-15T16:02:54.040Z,24.13
2017-12-15T16:05:23.958Z,22.53
2017-12-15T16:07:50.691Z,22.43
2017-12-15T16:10:17.390Z,22.20
2017-12-15T16:12:44.112Z,20.53
2017-12-15T16:15:11.296Z,23.47
2017-12-15T16:17:37.994Z,27.80
2017-12-15T16:20:17.740Z,26.60
2017-12-15T16:22:44.418Z,23.03
2017-12-15T16:25:11.168Z,23.93
2017-12-15T16:27:37.910Z,22.70
2017-12-15T16:30:08.560Z,21.57
2017-12-15T16:32:35.284Z,21.43
2017-12-15T16:35:03.004Z,21.03
2017-12-15T16:37:29.748Z,21.93
2017-12-15T16:39:56.443Z,22.03
2017-12-15T16:42:27.985Z,23.27
2017-12-15T16:44:54.674Z,23.40
2017-12-15T16:47:21.452Z,27.07
2017-12-15T16:49:48.964Z,24.60
2017-12-15T16:52:15.658Z,25.93
2017-12-15T16:54:42.362Z,25.87
2017-12-15T16:57:09.068Z,24.10
2017-12-15T16:59:35.772Z,25.00
2017-12-15T17:02:02.480Z,28.00
2017-12-15T17:04:29.192Z,25.30
2017-12-15T17:06:55.904Z,25.70
2017-12-15T17:09:22.612Z,25.63
2017-12-15T17:11:49.328Z,23.90
2017-12-15T17:14:16.015Z,23.70
2017-12-15T17:16:42.706Z,26.30
2017-12-15T17:19:09.413Z,25.90
2017-12-15T17:21:36.106Z,29.23
2017-12-15T17:24:02.810Z,30.37
2017-12-15T17:26:29.540Z,28.03
2017-12-15T17:28:56.213Z,30.87
2017-12-15T17:31:22.935Z,29.87
2017-12-15T17:33:49.651Z,30.10
2017-12-15T17:36:16.402Z,31.03
2017-12-15T17:38:43.100Z,33.33
2017-12-15T17:41:09.826Z,33.73
2017-12-15T17:43:36.522Z,35.27
2017-12-15T17:46:03.213Z,36.50
2017-12-15T17:48:29.974Z,37.50
2017-12-15T17:50:56.661Z,35.83
2017-12-15T17:53:23.354Z,36.50
2017-12-15T17:55:50.156Z,38.67
2017-12-15T17:58:16.871Z,35.67
2017-12-15T18:00:43.576Z,36.83
2017-12-15T18:06:01.100Z,37.50
2017-12-15T18:08:27.810Z,39.33
2017-12-15T18:10:54.506Z,45.17
2017-12-15T18:13:21.198Z,43.17
2017-12-15T18:15:47.942Z,41.67
2017-12-15T18:18:14.648Z,51.07
2017-12-15T18:20:41.414Z,45.27
2017-12-15T18:23:08.182Z,49.60
2017-12-15T18:25:34.882Z,48.30
2017-12-15T18:28:02.701Z,42.70
2017-12-15T18:30:29.469Z,44.10
2017-12-15T18:32:56.214Z,44.67
2017-12-15T18:35:22.964Z,45.63
2017-12-15T18:37:49.750Z,43.47
2017-12-15T18:40:16.532Z,41.20
2017-12-15T18:42:43.280Z,42.73
2017-12-15T18:45:10.089Z,39.13
2017-12-15T18:47:36.818Z,42.63
2017-12-15T18:50:03.492Z,42.43
2017-12-15T18:52:30.226Z,48.23
2017-12-15T18:54:57.249Z,56.97
2017-12-15T18:57:23.933Z,59.10
2017-12-15T18:59:50.747Z,59.87
2017-12-15T19:02:17.487Z,57.60
2017-12-15T19:04:44.188Z,55.20
2017-12-15T19:07:10.919Z,56.57
2017-12-15T19:09:37.613Z,58.20
2017-12-15T19:12:04.307Z,61.43
2017-12-15T19:14:31.033Z,67.93
2017-12-15T19:16:57.727Z,77.17
2017-12-15T19:19:24.420Z,82.57
2017-12-15T19:21:51.795Z,84.53
2017-12-15T19:24:18.495Z,76.97
2017-12-15T19:26:45.195Z,76.73
2017-12-15T19:29:11.929Z,71.40
2017-12-15T19:31:38.633Z,74.50
2017-12-15T19:34:05.331Z,75.20
2017-12-15T19:36:32.028Z,76.63
2017-12-15T19:38:58.732Z,77.83
2017-12-15T19:41:25.481Z,77.50
2017-12-15T19:43:52.191Z,79.67
2017-12-15T19:46:18.892Z,74.80
2017-12-15T19:48:45.991Z,75.27
2017-12-15T19:51:12.696Z,80.87
2017-12-15T19:53:39.397Z,87.40
2017-12-15T19:56:06.087Z,102.00
2017-12-15T19:58:32.833Z,98.40
2017-12-15T20:00:59.533Z,91.90
2017-12-15T20:03:26.231Z,84.83
2017-12-15T20:05:52.969Z,84.63
2017-12-15T20:08:19.686Z,77.63
2017-12-15T20:10:46.379Z,84.67
2017-12-15T20:13:13.139Z,118.83
2017-12-15T20:15:39.831Z,129.70
2017-12-15T20:18:06.514Z,166.07
2017-12-15T20:20:33.260Z,213.93
2017-12-15T20:22:59.969Z,200.33
2017-12-15T20:25:26.677Z,223.63
2017-12-15T20:27:53.388Z,162.37
2017-12-15T20:30:20.080Z,130.83
2017-12-15T20:32:46.783Z,120.63
2017-12-15T20:35:13.508Z,124.27
2017-12-15T20:37:40.252Z,119.83
2017-12-15T20:40:06.949Z,125.10
2017-12-15T20:42:40.918Z,122.77
2017-12-15T20:45:07.623Z,117.17
2017-12-15T20:47:34.329Z,131.70
2017-12-15T20:50:01.074Z,130.70
2017-12-15T20:52:27.773Z,125.87
2017-12-15T20:54:54.484Z,127.93
2017-12-15T20:57:21.216Z,126.90
2017-12-15T20:59:47.941Z,112.43
2017-12-15T21:02:14.681Z,102.90
2017-12-15T21:04:43.387Z,95.87
2017-12-15T21:07:18.255Z,102.33
2017-12-15T21:09:45.044Z,98.73
2017-12-15T21:12:11.772Z,89.43
2017-12-15T21:14:38.515Z,102.80
2017-12-15T21:17:05.300Z,119.07
2017-12-15T21:19:32.011Z,120.57
2017-12-15T21:21:58.709Z,121.67
2017-12-15T21:24:25.433Z,116.53
2017-12-15T21:26:52.157Z,118.10
2017-12-15T21:29:18.868Z,121.27
2017-12-15T21:31:45.651Z,119.23
2017-12-15T21:34:18.275Z,132.13
2017-12-15T21:36:50.521Z,134.17
2017-12-15T21:39:17.240Z,162.47
2017-12-15T21:41:43.947Z,195.17
2017-12-15T21:44:12.690Z,169.47
2017-12-15T21:46:39.423Z,185.83
2017-12-15T21:49:06.120Z,191.63
2017-12-15T21:51:32.831Z,229.60
2017-12-15T21:54:01.644Z,221.33
2017-12-15T21:56:28.344Z,211.27
2017-12-15T21:59:05.317Z,206.93
2017-12-15T22:01:32.053Z,179.03
2017-12-15T22:03:58.787Z,177.03
2017-12-15T22:06:29.583Z,170.60
2017-12-15T22:08:57.493Z,147.50
2017-12-15T22:11:24.205Z,183.40
2017-12-15T22:16:36.710Z,201.30
2017-12-15T22:19:03.426Z,186.03
2017-12-15T22:21:30.151Z,178.47
2017-12-15T22:23:56.861Z,184.63
2017-12-15T22:26:23.559Z,139.13
2017-12-15T22:28:50.322Z,152.23
2017-12-15T22:31:17.093Z,189.97
2017-12-15T22:33:46.991Z,163.33
2017-12-15T22:36:17.538Z,154.03
2017-12-15T22:38:59.415Z,156.43
2017-12-15T22:41:26.174Z,143.67
2017-12-15T22:43:53.934Z,141.63
2017-12-15T22:49:13.093Z,144.80
2017-12-15T22:51:39.925Z,160.03
2017-12-15T22:54:12.521Z,175.50
2017-12-15T22:56:43.383Z,174.43
2017-12-15T22:59:10.136Z,178.87
2017-12-15T23:01:36.901Z,183.47
2017-12-15T23:04:03.631Z,204.43
2017-12-15T23:06:31.389Z,207.40
2017-12-15T23:08:58.139Z,206.63
2017-12-15T23:11:31.435Z,205.43
2017-12-15T23:14:04.931Z,210.60
2017-12-15T23:16:31.676Z,220.37
2017-12-15T23:18:58.423Z,219.73
2017-12-15T23:21:25.159Z,208.57
2017-12-15T23:23:51.958Z,203.83
2017-12-15T23:26:27.051Z,199.63
2017-12-15T23:28:53.801Z,200.53
2017-12-15T23:31:20.538Z,215.10
2017-12-15T23:33:50.351Z,215.77
2017-12-15T23:36:28.895Z,219.63
2017-12-15T23:38:55.607Z,208.23
2017-12-15T23:41:23.295Z,223.33
2017-12-15T23:44:00.565Z,236.97
2017-12-15T23:46:35.001Z,229.97
2017-12-15T23:49:01.755Z,222.50
2017-12-15T23:51:28.495Z,222.37
2017-12-15T23:53:55.227Z,229.03
2017-12-15T23:56:28.031Z,205.67
2017-12-15T23:58:54.760Z,234.67
